createdAt,value
2022-12-23T00:00:29.646Z,95695.78
2022-12-23T00:02:56.686Z,95702.84
2022-12-23T00:05:23.679Z,95693.00
2022-12-23T00:07:50.511Z,95693.00
2022-12-23T00:10:17.408Z,95693.78
2022-12-23T00:13:02.829Z,95696.97
2022-12-23T00:15:29.704Z,95706.03
2022-12-23T00:17:56.477Z,95697.38
2022-12-23T00:20:23.879Z,95696.19
2022-12-23T00:23:05.870Z,95700.94
2022-12-23T00:25:46.498Z,95692.63
2022-12-23T00:28:17.152Z,95693.03
2022-12-23T00:31:01.495Z,95702.13
2022-12-23T00:33:31.353Z,95706.88
2022-12-23T00:35:58.231Z,95693.03
2022-12-23T00:38:45.336Z,95701.34
2022-12-23T00:41:38.440Z,95699.38
2022-12-23T00:44:05.391Z,95689.50
2022-12-23T00:46:32.821Z,95689.50
2022-12-23T00:49:18.201Z,95688.72
2022-12-23T00:51:45.153Z,95691.50
2022-12-23T00:54:11.955Z,95685.16
2022-12-23T00:56:38.894Z,95692.28
2022-12-23T00:59:05.716Z,95698.56
2022-12-23T01:01:51.212Z,95683.19
2022-12-23T01:04:37.315Z,95692.28
2022-12-23T01:07:05.794Z,95691.50
2022-12-23T01:09:33.577Z,95693.47
2022-12-23T01:12:00.533Z,95688.72
2022-12-23T01:14:27.838Z,95691.50
2022-12-23T01:16:54.764Z,95693.47
2022-12-23T01:19:21.754Z,95697.03
2022-12-23T01:21:48.597Z,95701.75
2022-12-23T01:24:15.816Z,95699.78
2022-12-23T01:26:42.588Z,95702.56
2022-12-23T01:29:09.414Z,95707.28
2022-12-23T01:31:36.217Z,95703.75
2022-12-23T01:34:03.106Z,95701.75
2022-12-23T01:36:30.030Z,95696.22
2022-12-23T01:38:57.417Z,95689.94
2022-12-23T01:41:45.887Z,95689.94
2022-12-23T01:44:50.054Z,95698.22
2022-12-23T01:47:26.389Z,95691.91
2022-12-23T01:50:17.134Z,95695.47
2022-12-23T01:53:08.030Z,95694.66
2022-12-23T01:55:49.720Z,95702.19
2022-12-23T01:58:51.758Z,95700.19
2022-12-23T02:01:37.681Z,95699.41
2022-12-23T02:04:08.210Z,95704.94
2022-12-23T02:06:56.107Z,95698.22
2022-12-23T02:09:29.569Z,95696.66
2022-12-23T02:12:24.413Z,95687.94
2022-12-23T02:15:42.248Z,95695.47
2022-12-23T02:18:51.919Z,95693.88
2022-12-23T02:21:35.504Z,95686.78
2022-12-23T02:24:02.385Z,95693.88
2022-12-23T02:26:32.106Z,95695.84
2022-12-23T02:29:20.039Z,95696.66
2022-12-23T02:32:20.662Z,95688.34
2022-12-23T02:34:56.795Z,95690.31
2022-12-23T02:37:26.125Z,95694.28
2022-12-23T02:39:52.858Z,95691.53
2022-12-23T02:42:33.987Z,95689.56
2022-12-23T02:45:11.611Z,95692.31
2022-12-23T02:47:48.217Z,95695.09
2022-12-23T02:50:23.556Z,95697.84
2022-12-23T02:52:54.088Z,95690.31
2022-12-23T02:55:29.316Z,95695.09
2022-12-23T02:58:00.848Z,95701.38
2022-12-23T03:00:27.967Z,95702.19
2022-12-23T03:02:54.828Z,95698.63
2022-12-23T03:05:33.024Z,95701.38
2022-12-23T03:08:04.003Z,95693.09
2022-12-23T03:10:42.711Z,95689.56
2022-12-23T03:13:18.591Z,95680.06
2022-12-23T03:16:06.170Z,95678.50
2022-12-23T03:18:33.013Z,95682.03
2022-12-23T03:21:30.656Z,95674.94
2022-12-23T03:24:06.508Z,95669.00
2022-12-23T03:26:46.151Z,95659.16
2022-12-23T03:29:26.817Z,95652.03
2022-12-23T03:31:57.770Z,95650.84
2022-12-23T03:34:30.109Z,95639.00
2022-12-23T03:37:03.986Z,95650.84
2022-12-23T03:39:38.909Z,95642.56
2022-12-23T03:42:23.964Z,95649.66
2022-12-23T03:45:27.880Z,95658.34
2022-12-23T03:47:46.857Z,95661.09
2022-12-23T03:50:17.540Z,95659.16
2022-12-23T03:52:56.328Z,95661.91
2022-12-23T03:55:32.942Z,95655.94
2022-12-23T03:58:24.365Z,95650.84
2022-12-23T04:01:01.139Z,95641.75
2022-12-23T04:04:03.324Z,95643.75
2022-12-23T04:06:39.370Z,95648.09
2022-12-23T04:09:07.741Z,95650.06
2022-12-23T04:11:36.718Z,95650.06
2022-12-23T04:14:03.682Z,95647.28
2022-12-23T04:16:30.825Z,95647.28
2022-12-23T04:18:57.673Z,95640.97
2022-12-23T04:21:24.579Z,95641.75
2022-12-23T04:23:51.485Z,95639.41
2022-12-23T04:26:18.299Z,95641.75
2022-12-23T04:28:45.073Z,95637.03
2022-12-23T04:31:11.949Z,95634.69
2022-12-23T04:33:38.828Z,95634.25
2022-12-23T04:36:05.943Z,95632.69
2022-12-23T04:38:32.742Z,95629.94
2022-12-23T04:40:59.528Z,95639.41
2022-12-23T04:43:26.375Z,95633.88
2022-12-23T04:45:53.455Z,95632.69
2022-12-23T04:48:20.787Z,95622.06
2022-12-23T04:50:47.613Z,95620.06
2022-12-23T04:53:14.671Z,95616.09
2022-12-23T04:55:41.475Z,95613.34
2022-12-23T04:58:08.271Z,95609.81
2022-12-23T05:00:39.399Z,95610.56
2022-12-23T05:03:07.062Z,95613.34
2022-12-23T05:05:34.139Z,95611.78
2022-12-23T05:08:05.491Z,95606.25
2022-12-23T05:10:32.437Z,95606.25
2022-12-23T05:12:59.286Z,95608.25
2022-12-23T05:15:26.298Z,95615.34
2022-12-23T05:17:53.155Z,95607.03
2022-12-23T05:20:19.913Z,95602.72
2022-12-23T05:22:46.791Z,95595.19
2022-12-23T05:25:13.611Z,95593.63
2022-12-23T05:27:40.421Z,95597.94
2022-12-23T05:30:07.936Z,95600.72
2022-12-23T05:32:34.761Z,95597.19
2022-12-23T05:35:01.533Z,95604.28
2022-12-23T05:37:28.379Z,95600.72
2022-12-23T05:39:55.171Z,95599.88
2022-12-23T05:42:21.959Z,95601.09
2022-12-23T05:44:48.768Z,95597.13
2022-12-23T05:47:15.581Z,95595.13
2022-12-23T05:49:42.356Z,95604.63
2022-12-23T05:52:09.166Z,95604.22
2022-12-23T05:54:35.938Z,95603.44
2022-12-23T05:57:02.735Z,95607.00
2022-12-23T05:59:31.665Z,95605.78
2022-12-23T06:01:58.970Z,95614.84
2022-12-23T06:04:26.119Z,95619.97
2022-12-23T06:06:53.142Z,95616.00
2022-12-23T06:09:19.947Z,95622.31
2022-12-23T06:11:46.897Z,95626.22
2022-12-23T06:14:13.730Z,95632.72
2022-12-23T06:16:40.611Z,95630.66
2022-12-23T06:19:07.535Z,95636.59
2022-12-23T06:21:34.296Z,95638.56
2022-12-23T06:24:01.078Z,95642.91
2022-12-23T06:26:27.934Z,95638.50
2022-12-23T06:28:54.881Z,95640.09
2022-12-23T06:31:21.711Z,95632.97
2022-12-23T06:33:48.523Z,95624.75
2022-12-23T06:36:15.401Z,95632.16
2022-12-23T06:38:42.170Z,95636.84
2022-12-23T06:41:09.491Z,95646.50
2022-12-23T06:43:36.275Z,95648.16
2022-12-23T06:46:03.104Z,95639.13
2022-12-23T06:48:29.942Z,95628.91
2022-12-23T06:50:56.781Z,95620.22
2022-12-23T06:53:23.865Z,95615.94
2022-12-23T06:55:50.687Z,95608.81
2022-12-23T06:58:17.582Z,95600.16
2022-12-23T07:00:44.387Z,95596.66
2022-12-23T07:03:11.327Z,95597.16
2022-12-23T07:05:38.286Z,95585.38
2022-12-23T07:08:05.610Z,95605.94
2022-12-23T07:10:33.733Z,95594.13
2022-12-23T07:13:01.652Z,95597.38
2022-12-23T07:15:28.476Z,95599.78
2022-12-23T07:17:55.324Z,95612.03
2022-12-23T07:20:22.153Z,95612.09
2022-12-23T07:22:50.372Z,95632.63
2022-12-23T07:25:17.171Z,95623.56
2022-12-23T07:27:44.026Z,95625.16
2022-12-23T07:30:11.120Z,95624.41
2022-12-23T07:32:37.964Z,95636.66
2022-12-23T07:35:05.268Z,95629.56
2022-12-23T07:37:32.084Z,95633.50
2022-12-23T07:40:02.306Z,95631.56
2022-12-23T07:42:45.310Z,95637.50
2022-12-23T07:45:13.202Z,95633.16
2022-12-23T07:47:40.027Z,95649.75
2022-12-23T07:50:07.616Z,95656.47
2022-12-23T07:52:34.481Z,95659.25
2022-12-23T07:55:01.291Z,95659.25
2022-12-23T07:57:29.419Z,95655.69
2022-12-23T07:59:56.214Z,95655.69
2022-12-23T08:02:25.297Z,95663.63
2022-12-23T08:04:52.374Z,95677.44
2022-12-23T08:07:19.288Z,95684.94
2022-12-23T08:09:46.095Z,95677.44
2022-12-23T08:12:12.918Z,95681.00
2022-12-23T08:14:39.706Z,95680.22
2022-12-23T08:17:06.538Z,95678.66
2022-12-23T08:19:33.584Z,95683.38
2022-12-23T08:22:00.503Z,95683.38
2022-12-23T08:24:27.322Z,95684.56
2022-12-23T08:26:54.847Z,95690.53
2022-12-23T08:29:21.683Z,95690.94
2022-12-23T08:31:50.429Z,95693.34
2022-12-23T08:34:19.411Z,95692.97
2022-12-23T08:36:46.279Z,95693.00
2022-12-23T08:39:13.166Z,95685.13
2022-12-23T08:41:44.355Z,95684.34
2022-12-23T08:44:11.592Z,95694.63
2022-12-23T08:46:39.122Z,95696.19
2022-12-23T08:49:06.578Z,95700.91
2022-12-23T08:51:33.943Z,95698.97
2022-12-23T08:54:01.657Z,95695.41
2022-12-23T08:56:31.289Z,95694.25
2022-12-23T08:58:58.478Z,95702.97
2022-12-23T09:01:28.171Z,95700.91
2022-12-23T09:03:55.584Z,95704.91
2022-12-23T09:06:29.691Z,95695.81
2022-12-23T09:08:57.843Z,95705.31
2022-12-23T09:11:27.485Z,95703.72
2022-12-23T09:13:54.899Z,95705.31
2022-12-23T09:16:22.667Z,95711.97
2022-12-23T09:18:49.632Z,95715.50
2022-12-23T09:21:21.826Z,95717.44
2022-12-23T09:23:49.344Z,95716.59
2022-12-23T09:26:25.292Z,95714.59
2022-12-23T09:28:53.056Z,95727.97
2022-12-23T09:31:21.071Z,95720.06
2022-12-23T09:33:49.849Z,95731.50
2022-12-23T09:36:17.436Z,95736.59
2022-12-23T09:38:44.516Z,95734.22
2022-12-23T09:41:11.269Z,95729.44
2022-12-23T09:43:52.060Z,95736.56
2022-12-23T09:46:20.771Z,95741.66
2022-12-23T09:49:00.917Z,95738.13
2022-12-23T09:51:29.247Z,95731.41
2022-12-23T09:54:05.135Z,95740.47
2022-12-23T09:56:36.563Z,95732.97
2022-12-23T09:59:44.623Z,95746.38
2022-12-23T10:02:11.572Z,95747.94
2022-12-23T10:04:50.437Z,95749.91
2022-12-23T10:07:27.768Z,95743.19
2022-12-23T10:09:58.217Z,95740.41
2022-12-23T10:12:48.772Z,95738.44
2022-12-23T10:15:46.755Z,95740.41
2022-12-23T10:18:26.003Z,95748.72
2022-12-23T10:21:07.582Z,95751.91
2022-12-23T10:23:40.032Z,95744.03
2022-12-23T10:29:44.690Z,95748.72
2022-12-23T10:32:26.299Z,95746.53
2022-12-23T10:35:33.738Z,95744.50
2022-12-23T10:38:32.943Z,95741.72
2022-12-23T10:41:15.785Z,95746.38
2022-12-23T10:44:22.781Z,95744.50
2022-12-23T10:47:06.029Z,95750.84
2022-12-23T10:49:45.497Z,95752.41
2022-12-23T10:52:18.782Z,95745.25
2022-12-23T10:54:47.732Z,95740.09
2022-12-23T10:57:17.438Z,95744.81
2022-12-23T10:59:44.900Z,95738.31
2022-12-23T11:02:11.800Z,95734.28
2022-12-23T11:04:47.997Z,95737.44
2022-12-23T11:07:45.920Z,95740.91
2022-12-23T11:10:20.947Z,95736.53
2022-12-23T11:12:53.514Z,95732.94
2022-12-23T11:15:37.327Z,95734.88
2022-12-23T11:18:18.039Z,95717.84
2022-12-23T11:21:01.079Z,95717.03
2022-12-23T11:23:35.224Z,95719.78
2022-12-23T11:26:05.340Z,95712.97
2022-12-23T11:28:34.444Z,95705.47
2022-12-23T11:31:14.653Z,95703.47
2022-12-23T11:33:52.302Z,95705.84
2022-12-23T11:36:25.205Z,95704.66
2022-12-23T11:39:01.562Z,95693.59
2022-12-23T11:41:35.065Z,95686.06
2022-12-23T11:44:06.829Z,95681.28
2022-12-23T11:46:35.393Z,95680.91
2022-12-23T11:49:14.019Z,95678.16
2022-12-23T11:51:41.692Z,95683.25
2022-12-23T11:54:16.351Z,95675.75
2022-12-23T11:56:43.879Z,95673.00
2022-12-23T11:59:33.032Z,95671.75
2022-12-23T12:02:04.229Z,95669.00
2022-12-23T12:04:35.642Z,95670.56
2022-12-23T12:07:04.981Z,95661.50
2022-12-23T12:09:34.023Z,95661.50
2022-12-23T12:12:07.935Z,95652.38
2022-12-23T12:14:44.148Z,95645.91
2022-12-23T12:17:19.802Z,95640.44
2022-12-23T12:19:53.804Z,95635.31
2022-12-23T12:23:12.825Z,95638.94
2022-12-23T12:25:50.744Z,95633.88
2022-12-23T12:28:25.082Z,95633.13
2022-12-23T12:31:02.029Z,95633.97
2022-12-23T12:33:48.637Z,95625.75
2022-12-23T12:37:12.583Z,95628.91
2022-12-23T12:40:00.818Z,95622.22
2022-12-23T12:42:42.087Z,95608.81
2022-12-23T12:45:25.063Z,95610.78
2022-12-23T12:48:08.691Z,95606.47
2022-12-23T12:50:46.102Z,95603.69
2022-12-23T12:53:20.794Z,95599.38
2022-12-23T12:56:10.835Z,95599.38
2022-12-23T12:58:39.457Z,95591.38
2022-12-23T13:01:21.833Z,95580.63
2022-12-23T13:04:04.479Z,95576.72
2022-12-23T13:06:55.178Z,95577.91
2022-12-23T13:09:47.968Z,95574.00
2022-12-23T13:12:24.941Z,95575.22
2022-12-23T13:15:09.835Z,95570.09
2022-12-23T13:18:05.237Z,95571.31
2022-12-23T13:21:01.703Z,95567.75
2022-12-23T13:23:43.375Z,95564.22
2022-12-23T13:26:41.940Z,95565.41
2022-12-23T13:29:11.445Z,95562.28
2022-12-23T13:31:50.476Z,95566.59
2022-12-23T13:34:52.241Z,95563.84
2022-12-23T13:37:30.871Z,95562.28
2022-12-23T13:40:03.643Z,95561.94
2022-12-23T13:42:36.515Z,95557.16
2022-12-23T13:45:07.178Z,95557.16
2022-12-23T13:47:57.251Z,95542.56
2022-12-23T13:50:46.638Z,95547.31
2022-12-23T13:53:40.214Z,95545.34
2022-12-23T13:56:24.872Z,95543.78
2022-12-23T13:58:54.788Z,95546.53
2022-12-23T14:01:37.382Z,95541.00
2022-12-23T14:04:37.649Z,95540.22
2022-12-23T14:07:24.449Z,95547.31
2022-12-23T14:09:58.232Z,95548.09
2022-12-23T14:12:31.036Z,95540.56
2022-12-23T14:15:06.572Z,95541.34
2022-12-23T14:18:04.946Z,95539.81
2022-12-23T14:20:47.799Z,95536.59
2022-12-23T14:23:39.814Z,95535.81
2022-12-23T14:26:49.360Z,95532.22
2022-12-23T14:29:49.177Z,95531.84
2022-12-23T14:32:29.136Z,95524.34
2022-12-23T14:37:23.133Z,95529.09
2022-12-23T14:40:34.840Z,95529.50
2022-12-23T14:43:34.855Z,95526.31
2022-12-23T14:46:07.248Z,95515.19
2022-12-23T14:48:46.329Z,95514.00
2022-12-23T14:51:33.471Z,95519.94
2022-12-23T14:54:03.649Z,95522.72
2022-12-23T14:56:44.273Z,95515.63
2022-12-23T14:59:38.905Z,95517.63
2022-12-23T15:02:23.950Z,95508.63
2022-12-23T15:05:06.565Z,95519.75
2022-12-23T15:07:46.404Z,95520.94
2022-12-23T15:10:24.602Z,95517.41
2022-12-23T15:13:00.721Z,95513.09
2022-12-23T15:15:46.030Z,95524.91
2022-12-23T15:19:46.212Z,95521.38
2022-12-23T15:22:32.224Z,95515.84
2022-12-23T15:25:23.479Z,95517.06
2022-12-23T15:28:01.583Z,95517.06
2022-12-23T15:30:38.727Z,95513.50
2022-12-23T15:33:34.890Z,95512.72
2022-12-23T15:36:06.798Z,95504.41
2022-12-23T15:38:49.835Z,95511.53
2022-12-23T15:44:42.260Z,95515.84
2022-12-23T15:47:34.694Z,95517.41
2022-12-23T15:50:18.227Z,95504.34
2022-12-23T15:52:50.719Z,95511.81
2022-12-23T15:55:31.082Z,95508.56
2022-12-23T15:58:08.613Z,95509.38
2022-12-23T16:01:19.445Z,95514.91
2022-12-23T16:04:01.712Z,95506.59
2022-12-23T16:06:38.990Z,95501.06
2022-12-23T16:09:21.388Z,95501.06
2022-12-23T16:12:07.034Z,95505.81
2022-12-23T16:14:41.567Z,95494.38
2022-12-23T16:17:11.985Z,95492.81
2022-12-23T16:19:48.467Z,95497.56
2022-12-23T16:22:31.271Z,95495.97
2022-12-23T16:25:18.086Z,95495.22
2022-12-23T16:28:07.665Z,95502.72
2022-12-23T16:30:40.604Z,95499.19
2022-12-23T16:33:44.386Z,95520.13
2022-12-23T16:36:24.110Z,95507.06
2022-12-23T16:39:10.932Z,95512.94
2022-12-23T16:41:40.223Z,95520.03
2022-12-23T16:44:10.137Z,95518.84
2022-12-23T16:46:44.672Z,95529.50
2022-12-23T16:50:38.484Z,95534.63
2022-12-23T16:53:28.255Z,95531.25
2022-12-23T16:56:35.199Z,95535.34
2022-12-23T17:02:36.635Z,95531.72
2022-12-23T17:05:13.406Z,95531.09
2022-12-23T17:07:49.132Z,95518.84
2022-12-23T17:10:27.961Z,95525.63
2022-12-23T17:13:00.135Z,95528.00
2022-12-23T17:15:30.544Z,95528.00
2022-12-23T17:18:00.158Z,95529.22
2022-12-23T17:20:30.369Z,95529.50
2022-12-23T17:23:02.125Z,95532.53
2022-12-23T17:25:32.043Z,95529.63
2022-12-23T17:28:02.456Z,95529.94
2022-12-23T17:30:32.401Z,95526.69
2022-12-23T17:33:02.407Z,95518.75
2022-12-23T17:35:32.632Z,95532.94
2022-12-23T17:38:02.943Z,95526.63
2022-12-23T17:40:32.781Z,95529.38
2022-12-23T17:43:02.389Z,95538.88
2022-12-23T17:45:32.646Z,95525.47
2022-12-23T17:48:02.525Z,95526.69
2022-12-23T17:50:36.394Z,95531.44
2022-12-23T17:53:06.959Z,95533.41
2022-12-23T17:55:36.567Z,95524.34
2022-12-23T17:58:06.793Z,95533.03
2022-12-23T18:00:36.394Z,95533.03
2022-12-23T18:03:08.770Z,95525.97
2022-12-23T18:05:38.386Z,95532.28
2022-12-23T18:08:07.988Z,95534.28
2022-12-23T18:10:41.907Z,95533.03
2022-12-23T18:13:18.878Z,95530.28
2022-12-23T18:15:49.406Z,95520.44
2022-12-23T18:18:28.970Z,95525.97
2022-12-23T18:21:02.789Z,95523.22
2022-12-23T18:23:35.190Z,95521.97
2022-12-23T18:26:05.974Z,95523.22
2022-12-23T18:28:35.579Z,95520.44
2022-12-23T18:31:05.236Z,95520.44
2022-12-23T18:33:35.060Z,95512.91
2022-12-23T18:36:05.676Z,95525.19
2022-12-23T18:38:35.249Z,95511.34
2022-12-23T18:41:04.657Z,95518.88
2022-12-23T18:43:34.155Z,95520.44
2022-12-23T18:46:03.901Z,95520.44
2022-12-23T18:48:33.479Z,95523.22
2022-12-23T18:51:07.099Z,95521.09
2022-12-23T18:53:37.201Z,95530.03
2022-12-23T18:56:06.499Z,95529.97
2022-12-23T18:58:36.125Z,95538.69
2022-12-23T19:01:07.014Z,95530.44
2022-12-23T19:03:44.176Z,95529.69
2022-12-23T19:06:16.783Z,95535.09
2022-12-23T19:08:47.685Z,95540.56
2022-12-23T19:11:20.134Z,95529.44
2022-12-23T19:13:50.044Z,95540.09
2022-12-23T19:16:22.604Z,95542.44
2022-12-23T19:18:52.879Z,95532.50
2022-12-23T19:21:23.484Z,95538.84
2022-12-23T19:23:54.124Z,95533.63
2022-12-23T19:26:24.534Z,95538.34
2022-12-23T19:28:53.853Z,95537.13
2022-12-23T19:31:25.677Z,95536.69
2022-12-23T19:33:55.515Z,95531.53
2022-12-23T19:36:25.234Z,95533.88
2022-12-23T19:39:02.149Z,95531.09
2022-12-23T19:41:34.811Z,95525.16
2022-12-23T19:44:09.475Z,95531.03
2022-12-23T19:46:41.125Z,95528.25
2022-12-23T19:49:15.736Z,95521.53
2022-12-23T19:51:49.541Z,95527.84
2022-12-23T19:54:21.882Z,95530.19
2022-12-23T19:56:57.355Z,95528.97
2022-12-23T19:59:28.176Z,95535.28
2022-12-23T20:01:58.818Z,95535.28
2022-12-23T20:04:28.630Z,95537.66
2022-12-23T20:06:58.793Z,95532.88
2022-12-23T20:09:28.134Z,95529.69
2022-12-23T20:11:57.450Z,95530.47
2022-12-23T20:14:32.114Z,95536.00
2022-12-23T20:17:03.723Z,95538.34
2022-12-23T20:19:33.332Z,95538.34
2022-12-23T20:22:04.162Z,95535.16
2022-12-23T20:24:36.474Z,95536.72
2022-12-23T20:27:11.409Z,95535.16
2022-12-23T20:29:42.836Z,95528.41
2022-12-23T20:32:13.357Z,95526.44
2022-12-23T20:34:42.965Z,95521.66
2022-12-23T20:37:13.289Z,95526.75
2022-12-23T20:39:43.098Z,95528.34
2022-12-23T20:42:13.027Z,95520.03
2022-12-23T20:44:42.628Z,95516.84
2022-12-23T20:47:12.235Z,95516.84
2022-12-23T20:49:42.770Z,95520.38
2022-12-23T20:52:13.276Z,95522.31
2022-12-23T20:54:43.211Z,95520.69
2022-12-23T20:57:13.235Z,95527.50
2022-12-23T20:59:43.807Z,95527.56
2022-12-23T21:02:15.687Z,95522.88
2022-12-23T21:04:45.360Z,95518.59
2022-12-23T21:07:16.655Z,95519.47
2022-12-23T21:09:47.600Z,95516.34
2022-12-23T21:12:17.544Z,95517.97
2022-12-23T21:14:47.149Z,95513.28
2022-12-23T21:17:16.450Z,95511.72
2022-12-23T21:19:45.847Z,95512.16
2022-12-23T21:22:16.312Z,95513.34
2022-12-23T21:24:45.297Z,95499.16
2022-12-23T21:27:15.509Z,95509.47
2022-12-23T21:29:45.296Z,95518.97
2022-12-23T21:32:15.311Z,95515.44
2022-12-23T21:34:45.865Z,95518.59
2022-12-23T21:37:15.484Z,95522.56
2022-12-23T21:39:44.882Z,95517.03
2022-12-23T21:42:14.691Z,95517.03
2022-12-23T21:44:44.306Z,95511.94
2022-12-23T21:47:13.380Z,95511.94
2022-12-23T21:49:45.317Z,95511.16
2022-12-23T21:52:15.581Z,95513.78
2022-12-23T21:54:45.829Z,95520.81
2022-12-23T21:57:16.034Z,95513.22
2022-12-23T21:59:46.233Z,95517.91
2022-12-23T22:02:19.882Z,95511.50
2022-12-23T22:04:49.419Z,95515.44
2022-12-23T22:07:20.737Z,95513.00
2022-12-23T22:09:50.832Z,95505.69
2022-12-23T22:12:20.133Z,95514.09
2022-12-23T22:14:49.737Z,95510.16
2022-12-23T22:17:19.618Z,95512.50
2022-12-23T22:19:50.186Z,95505.84
2022-12-23T22:22:20.515Z,95505.50
2022-12-23T22:24:50.022Z,95508.63
2022-12-23T22:27:19.019Z,95507.81
2022-12-23T22:29:48.627Z,95506.63
2022-12-23T22:32:18.236Z,95519.19
2022-12-23T22:34:47.838Z,95516.41
2022-12-23T22:37:17.451Z,95516.06
2022-12-23T22:39:47.678Z,95518.47
2022-12-23T22:42:16.678Z,95513.00
2022-12-23T22:44:46.133Z,95510.31
2022-12-23T22:47:15.890Z,95512.75
2022-12-23T22:49:45.325Z,95511.56
2022-12-23T22:52:15.107Z,95506.47
2022-12-23T22:54:44.711Z,95501.00
2022-12-23T22:57:14.036Z,95502.22
2022-12-23T22:59:43.925Z,95494.34
2022-12-23T23:02:13.593Z,95490.78
2022-12-23T23:04:43.453Z,95485.69
2022-12-23T23:07:13.632Z,95491.66
2022-12-23T23:09:43.269Z,95499.16
2022-12-23T23:12:13.177Z,95494.81
2022-12-23T23:14:54.587Z,95494.06
2022-12-23T23:17:27.778Z,95492.06
2022-12-23T23:19:57.387Z,95501.84
2022-12-23T23:22:26.735Z,95492.94
2022-12-23T23:24:56.916Z,95488.59
2022-12-23T23:27:26.618Z,95482.69
2022-12-23T23:29:56.442Z,95478.38
2022-12-23T23:32:27.904Z,95478.78
2022-12-23T23:34:57.499Z,95472.56
2022-12-23T23:37:27.118Z,95470.22
2022-12-23T23:39:56.714Z,95467.88
2022-12-23T23:42:26.337Z,95472.63
2022-12-23T23:44:55.927Z,95472.28
2022-12-23T23:47:25.238Z,95477.03
2022-12-23T23:49:54.561Z,95469.91
2022-12-23T23:52:24.091Z,95469.16
2022-12-23T23:54:53.741Z,95467.59
2022-12-23T23:57:23.310Z,95468.78
2022-12-23T23:59:52.927Z,95471.56
